Time;durP1;ratioP1;P1;durP2;ratioP2;P2;SDS_P1;SDS_P2;PMS_P1;PMS_P2;Temp;Humidity;BMP_temperature;BMP_pressure;BME280_temperature;BME280_humidity;BME280_pressure;Samples;Min_cycle;Max_cycle;Signal;HPM_P1;HPM_P2
2021/01/26 00:01:10;;;;;;;6.40;4.23;;;-2.20;99.90;;;;;;5071697;28;20930;-71
2021/01/26 00:03:37;;;;;;;11.93;5.70;;;-2.20;99.90;;;;;;5071436;28;20796;-71
2021/01/26 00:06:03;;;;;;;5.27;4.50;;;-2.20;99.90;;;;;;5071862;28;20532;-71
2021/01/26 00:08:30;;;;;;;6.30;4.13;;;-2.20;99.90;;;;;;5071149;28;20465;-71
2021/01/26 00:10:58;;;;;;;6.30;4.87;;;-2.20;99.90;;;;;;5071613;28;20919;-71
2021/01/26 00:13:25;;;;;;;7.80;4.37;;;-2.20;99.90;;;;;;5071879;28;20430;-71
2021/01/26 00:15:52;;;;;;;4.70;4.30;;;-2.20;99.90;;;;;;5071312;28;20830;-71
2021/01/26 00:18:19;;;;;;;8.73;5.70;;;-2.20;99.90;;;;;;5071422;28;20831;-71
2021/01/26 00:20:45;;;;;;;5.23;4.73;;;-2.30;99.90;;;;;;5071416;28;20434;-70
2021/01/26 00:23:12;;;;;;;4.00;3.60;;;-2.20;99.90;;;;;;5071634;28;20426;-71
2021/01/26 00:25:40;;;;;;;6.23;5.03;;;-2.20;99.90;;;;;;5071241;28;20469;-69
2021/01/26 00:28:09;;;;;;;7.23;6.00;;;-2.20;99.90;;;;;;5071267;28;20477;-69
2021/01/26 00:30:39;;;;;;;9.03;5.93;;;-2.30;99.90;;;;;;5071160;28;21081;-71
2021/01/26 00:33:09;;;;;;;6.90;5.80;;;-2.20;99.90;;;;;;5070581;28;20819;-69
2021/01/26 00:35:36;;;;;;;9.17;6.47;;;-2.20;99.90;;;;;;5071053;28;20447;-71
2021/01/26 00:38:06;;;;;;;10.17;5.43;;;-2.20;99.90;;;;;;5071149;28;20543;-71
2021/01/26 00:40:33;;;;;;;7.10;5.77;;;-2.20;99.90;;;;;;5066555;28;20434;-71
2021/01/26 00:43:01;;;;;;;8.27;5.67;;;-2.30;99.90;;;;;;5071041;28;20453;-71
2021/01/26 00:45:29;;;;;;;9.00;5.70;;;-2.30;99.90;;;;;;5069429;28;20481;-71
2021/01/26 00:47:57;;;;;;;6.57;4.80;;;-2.30;99.90;;;;;;5070342;28;20614;-71
2021/01/26 00:50:24;;;;;;;7.30;6.10;;;-2.30;99.90;;;;;;5071006;28;20425;-71
2021/01/26 00:52:51;;;;;;;8.93;5.60;;;-2.30;99.90;;;;;;5070885;28;20419;-71
2021/01/26 00:55:22;;;;;;;7.50;5.87;;;-2.30;99.90;;;;;;5071005;28;20468;-71
2021/01/26 00:57:49;;;;;;;5.23;3.90;;;-2.30;99.90;;;;;;5070930;28;20466;-71
2021/01/26 01:00:20;;;;;;;5.80;4.90;;;-2.30;99.90;;;;;;5070969;28;20460;-71
2021/01/26 01:02:46;;;;;;;6.13;5.40;;;-2.30;99.90;;;;;;5070266;28;20555;-71
2021/01/26 01:05:16;;;;;;;6.70;6.00;;;-2.30;99.90;;;;;;5070289;28;20470;-71
2021/01/26 01:07:43;;;;;;;8.07;5.23;;;-2.40;99.90;;;;;;5070892;28;20916;-71
2021/01/26 01:10:12;;;;;;;7.93;5.00;;;-2.40;99.90;;;;;;5070488;28;20787;-70
2021/01/26 01:12:39;;;;;;;10.83;6.80;;;-2.40;99.90;;;;;;5070778;28;20425;-71
2021/01/26 01:15:08;;;;;;;9.40;6.90;;;-2.40;99.90;;;;;;5070766;28;20938;-71
2021/01/26 01:17:35;;;;;;;8.00;6.70;;;-2.50;99.90;;;;;;5070437;28;20480;-71
2021/01/26 01:20:01;;;;;;;10.80;6.50;;;-2.50;99.90;;;;;;5069797;28;20822;-71
2021/01/26 01:22:29;;;;;;;6.83;5.50;;;-2.50;99.90;;;;;;5070433;28;20764;-71
2021/01/26 01:24:56;;;;;;;8.73;6.37;;;-2.60;99.90;;;;;;5070688;28;20529;-71
2021/01/26 01:27:22;;;;;;;9.33;6.33;;;-2.60;99.90;;;;;;5070700;28;20429;-71
2021/01/26 01:29:49;;;;;;;8.23;6.40;;;-2.60;99.90;;;;;;5070634;28;20811;-71
2021/01/26 01:32:16;;;;;;;6.93;5.30;;;-2.60;99.90;;;;;;5070238;28;20426;-71
2021/01/26 01:34:43;;;;;;;8.87;6.10;;;-2.60;99.90;;;;;;5070641;28;20446;-71
2021/01/26 01:37:10;;;;;;;8.00;6.10;;;-2.50;99.90;;;;;;5070641;28;20425;-70
2021/01/26 01:39:37;;;;;;;10.07;6.47;;;-2.50;99.90;;;;;;5070559;28;20805;-71
2021/01/26 01:42:07;;;;;;;7.07;5.83;;;-2.60;99.90;;;;;;5070175;28;20438;-71
2021/01/26 01:44:34;;;;;;;10.80;6.57;;;-2.60;99.90;;;;;;5070570;28;20461;-71
2021/01/26 01:47:07;;;;;;;7.97;6.60;;;-2.70;99.90;;;;;;5070118;28;20441;-71
2021/01/26 01:49:41;;;;;;;9.07;6.07;;;-2.80;99.90;;;;;;5070476;28;20425;-71
2021/01/26 01:52:12;;;;;;;6.67;5.77;;;-2.90;99.90;;;;;;5070125;28;20421;-71
2021/01/26 01:54:46;;;;;;;9.47;5.70;;;-2.90;99.90;;;;;;5070583;28;20446;-71
2021/01/26 01:57:21;;;;;;;8.23;5.63;;;-3.00;99.90;;;;;;5070712;28;20440;-71
2021/01/26 01:59:51;;;;;;;7.23;5.53;;;-3.10;99.90;;;;;;5070397;28;20431;-71
2021/01/26 02:02:18;;;;;;;9.33;5.73;;;-3.10;99.90;;;;;;5069920;28;20858;-69
2021/01/26 02:04:45;;;;;;;9.33;6.63;;;-3.10;99.90;;;;;;5070191;28;20446;-69
2021/01/26 02:07:21;;;;;;;6.53;5.13;;;-3.20;99.90;;;;;;5069940;28;20500;-71
2021/01/26 02:09:51;;;;;;;10.57;5.60;;;-3.30;99.90;;;;;;5070423;28;20440;-71
2021/01/26 02:12:18;;;;;;;8.90;5.90;;;-3.20;99.90;;;;;;5070148;28;20448;-71
2021/01/26 02:14:53;;;;;;;10.27;7.30;;;-3.30;99.90;;;;;;5069971;28;20472;-71
2021/01/26 02:17:37;;;;;;;8.77;6.33;;;-3.30;99.90;;;;;;5069548;28;20857;-71
2021/01/26 02:20:54;;;;;;;8.20;5.43;;;-3.40;99.90;;;;;;5070557;28;20422;-71
2021/01/26 02:27:16;;;;;;;10.20;6.57;;;-3.30;99.90;;;;;;5059617;28;20501;-71
2021/01/26 02:30:20;;;;;;;10.23;5.67;;;-3.30;99.90;;;;;;5070329;28;20523;-71
2021/01/26 02:33:18;;;;;;;7.63;6.30;;;-3.20;99.90;;;;;;5060762;28;20850;-71
2021/01/26 02:36:19;;;;;;;9.20;5.73;;;-3.30;99.90;;;;;;5073746;28;20438;-71
2021/01/26 02:39:13;;;;;;;7.57;5.20;;;-3.20;99.90;;;;;;5060058;28;20468;-71
2021/01/26 02:41:44;;;;;;;8.33;5.67;;;-3.30;99.90;;;;;;5072843;28;20449;-71
2021/01/26 02:44:23;;;;;;;7.90;5.20;;;-3.30;99.90;;;;;;5073148;28;20503;-71
2021/01/26 02:46:56;;;;;;;6.30;4.60;;;-3.30;99.90;;;;;;5073449;28;20814;-71
2021/01/26 02:49:30;;;;;;;5.70;4.70;;;-3.30;99.90;;;;;;5073427;28;20430;-71
2021/01/26 02:52:08;;;;;;;8.17;5.70;;;-3.30;99.90;;;;;;5073239;28;20425;-71
2021/01/26 02:54:51;;;;;;;6.10;5.33;;;-3.30;99.90;;;;;;5073200;28;20449;-71
2021/01/26 02:57:23;;;;;;;7.03;5.70;;;-3.30;99.90;;;;;;5073278;28;20422;-71
2021/01/26 02:59:54;;;;;;;7.17;4.60;;;-3.30;99.90;;;;;;5073391;28;20437;-71
2021/01/26 03:02:25;;;;;;;4.83;4.20;;;-3.30;99.90;;;;;;5072869;28;20414;-71
2021/01/26 03:04:59;;;;;;;5.60;4.40;;;-3.30;99.90;;;;;;5073006;28;20450;-71
2021/01/26 03:07:29;;;;;;;6.80;4.43;;;-3.30;99.90;;;;;;5072873;28;20418;-71
2021/01/26 03:10:01;;;;;;;7.33;5.97;;;-3.30;99.90;;;;;;5072973;28;20977;-71
2021/01/26 03:12:32;;;;;;;7.20;5.37;;;-3.30;99.90;;;;;;5072908;28;20418;-71
2021/01/26 03:15:03;;;;;;;7.20;4.80;;;-3.30;99.90;;;;;;5072724;28;20539;-71
2021/01/26 03:17:34;;;;;;;8.73;5.40;;;-3.30;99.90;;;;;;5072829;28;20453;-71
2021/01/26 03:20:06;;;;;;;6.13;4.70;;;-3.30;99.90;;;;;;5072968;28;20442;-71
2021/01/26 03:22:34;;;;;;;6.43;4.57;;;-3.30;99.90;;;;;;5072695;28;20434;-71
2021/01/26 03:25:03;;;;;;;5.60;4.33;;;-3.30;99.90;;;;;;5072768;28;21017;-71
2021/01/26 03:27:37;;;;;;;6.07;4.97;;;-3.30;99.90;;;;;;5072488;28;20426;-71
2021/01/26 03:30:08;;;;;;;8.30;5.30;;;-3.20;99.90;;;;;;5072737;28;20438;-71
2021/01/26 03:32:49;;;;;;;7.53;5.30;;;-3.20;99.90;;;;;;5072305;28;20445;-71
2021/01/26 03:35:17;;;;;;;8.60;6.47;;;-3.20;99.90;;;;;;5073089;28;20445;-70
2021/01/26 03:37:51;;;;;;;8.03;5.23;;;-3.20;99.90;;;;;;5072467;28;20442;-71
2021/01/26 03:40:20;;;;;;;5.97;4.23;;;-3.10;99.90;;;;;;5072356;28;20430;-70
2021/01/26 03:42:47;;;;;;;6.13;4.67;;;-3.10;99.90;;;;;;5070995;28;20443;-71
2021/01/26 03:45:14;;;;;;;6.77;4.60;;;-3.20;99.90;;;;;;5072459;28;20827;-71
2021/01/26 03:47:48;;;;;;;6.33;4.27;;;-3.10;99.90;;;;;;5072019;28;20426;-71
2021/01/26 03:50:43;;;;;;;7.97;5.43;;;-3.10;99.90;;;;;;5072342;28;20452;-71
2021/01/26 03:53:51;;;;;;;10.43;6.10;;;-3.00;99.90;;;;;;5069844;28;20445;-71
2021/01/26 03:56:25;;;;;;;4.67;4.23;;;-2.90;99.90;;;;;;5043512;28;20437;-71
2021/01/26 03:59:11;;;;;;;5.80;4.27;;;-2.90;99.90;;;;;;5071925;28;20892;-71
2021/01/26 04:01:43;;;;;;;5.00;4.00;;;-3.00;99.90;;;;;;5071809;28;20930;-71
2021/01/26 04:04:20;;;;;;;5.93;4.87;;;-3.00;99.90;;;;;;5071539;28;20453;-70
2021/01/26 04:06:50;;;;;;;5.80;4.50;;;-3.00;99.90;;;;;;5072670;28;20475;-70
2021/01/26 04:09:22;;;;;;;6.20;4.03;;;-3.00;99.90;;;;;;5071574;28;20508;-71
2021/01/26 04:11:56;;;;;;;5.43;4.00;;;-3.00;99.90;;;;;;5071765;28;21057;-71
2021/01/26 04:14:25;;;;;;;4.43;4.03;;;-3.00;99.90;;;;;;5071862;28;20552;-71
2021/01/26 04:16:56;;;;;;;8.50;5.43;;;-3.00;99.90;;;;;;5071476;28;21070;-71
2021/01/26 04:19:30;;;;;;;8.27;5.40;;;-3.00;99.90;;;;;;5071574;28;20469;-71
2021/01/26 04:21:59;;;;;;;6.33;4.83;;;-3.00;99.90;;;;;;5071486;28;20440;-71
2021/01/26 04:24:32;;;;;;;7.10;5.30;;;-3.10;99.90;;;;;;5071804;28;20467;-71
2021/01/26 04:27:01;;;;;;;4.73;3.60;;;-3.20;99.90;;;;;;5071683;28;20484;-71
2021/01/26 04:29:28;;;;;;;4.23;3.83;;;-3.10;99.90;;;;;;5071421;28;20637;-71
2021/01/26 04:31:55;;;;;;;5.20;3.80;;;-3.10;99.90;;;;;;5070975;28;20422;-72
2021/01/26 04:34:23;;;;;;;4.73;4.17;;;-3.10;99.90;;;;;;5071173;28;20438;-71
2021/01/26 04:36:49;;;;;;;5.63;4.60;;;-3.10;99.90;;;;;;5071038;28;20441;-71
2021/01/26 04:39:16;;;;;;;7.60;5.10;;;-3.10;99.90;;;;;;5071225;28;20831;-71
2021/01/26 04:41:50;;;;;;;5.07;4.03;;;-3.10;99.90;;;;;;5070418;28;20453;-71
2021/01/26 04:44:36;;;;;;;4.40;4.00;;;-3.10;99.90;;;;;;5071209;28;20446;-70
2021/01/26 04:47:13;;;;;;;6.10;3.87;;;-3.20;99.90;;;;;;5071380;28;20446;-71
2021/01/26 04:49:48;;;;;;;8.20;3.77;;;-3.10;99.90;;;;;;5071110;28;20907;-71
2021/01/26 04:52:38;;;;;;;3.77;3.47;;;-3.10;99.90;;;;;;5070795;28;20425;-70
2021/01/26 04:55:15;;;;;;;4.87;3.90;;;-3.10;99.90;;;;;;5070723;28;20970;-71
2021/01/26 04:58:09;;;;;;;9.77;4.30;;;-3.10;99.90;;;;;;5071058;28;20426;-71
2021/01/26 05:00:49;;;;;;;6.10;3.47;;;-3.20;99.90;;;;;;5068142;28;20822;-71
2021/01/26 05:03:37;;;;;;;5.60;4.20;;;-3.20;99.90;;;;;;5070757;28;20440;-71
2021/01/26 05:06:06;;;;;;;4.20;3.30;;;-3.20;99.90;;;;;;5070966;28;20433;-71
2021/01/26 05:08:37;;;;;;;5.77;4.07;;;-3.20;99.90;;;;;;5070748;28;20453;-70
2021/01/26 05:11:10;;;;;;;3.07;2.80;;;-3.20;99.90;;;;;;5070477;28;20426;-71
2021/01/26 05:13:40;;;;;;;5.33;3.50;;;-3.20;99.90;;;;;;5070797;28;20430;-71
2021/01/26 05:16:14;;;;;;;4.07;3.47;;;-3.20;99.90;;;;;;5070866;28;20438;-70
2021/01/26 05:18:48;;;;;;;5.40;3.20;;;-3.30;99.90;;;;;;5070638;28;20481;-71
2021/01/26 05:21:24;;;;;;;4.13;3.50;;;-3.40;99.90;;;;;;5070633;28;21012;-71
2021/01/26 05:23:56;;;;;;;3.53;2.93;;;-3.40;99.90;;;;;;5070775;28;20460;-70
2021/01/26 05:26:24;;;;;;;3.87;3.10;;;-3.50;99.90;;;;;;5070678;28;20433;-72
2021/01/26 05:28:51;;;;;;;3.70;2.97;;;-3.50;99.90;;;;;;5070551;28;20455;-70
2021/01/26 05:31:28;;;;;;;4.10;2.87;;;-3.50;99.90;;;;;;5070181;28;20505;-71
2021/01/26 05:33:57;;;;;;;4.87;2.93;;;-3.40;99.90;;;;;;5070540;28;20507;-70
2021/01/26 05:36:24;;;;;;;3.20;2.90;;;-3.40;99.90;;;;;;5070603;28;20895;-69
2021/01/26 05:38:51;;;;;;;4.10;2.50;;;-3.50;99.90;;;;;;5069777;28;20474;-68
2021/01/26 05:41:20;;;;;;;4.37;3.27;;;-3.40;99.90;;;;;;5070791;28;20453;-74
2021/01/26 05:43:48;;;;;;;4.07;2.77;;;-3.40;99.90;;;;;;5071132;28;20438;-72
2021/01/26 05:46:36;;;;;;;3.93;3.10;;;-3.50;99.90;;;;;;5070556;28;20433;-71
2021/01/26 05:49:03;;;;;;;4.17;2.67;;;-3.50;99.90;;;;;;5070516;28;20500;-73
2021/01/26 05:51:31;;;;;;;3.83;2.87;;;-3.50;99.90;;;;;;5070475;28;20922;-70
2021/01/26 05:54:03;;;;;;;4.57;3.00;;;-3.50;99.90;;;;;;5070544;28;20452;-73
2021/01/26 05:56:30;;;;;;;4.13;2.87;;;-3.50;99.90;;;;;;5070559;28;20923;-73
2021/01/26 05:58:57;;;;;;;4.77;3.40;;;-3.50;99.90;;;;;;5070491;28;20470;-73
2021/01/26 06:01:31;;;;;;;3.27;2.70;;;-3.40;99.90;;;;;;5070442;28;20865;-73
2021/01/26 06:04:11;;;;;;;2.67;2.07;;;-3.40;99.90;;;;;;5070363;28;20473;-73
2021/01/26 06:06:57;;;;;;;3.57;2.63;;;-3.40;99.90;;;;;;5072887;28;20425;-73
2021/01/26 06:09:33;;;;;;;14.83;4.67;;;-3.40;99.90;;;;;;5074438;28;20425;-73
2021/01/26 06:12:16;;;;;;;4.43;3.40;;;-3.40;99.90;;;;;;5073930;28;20426;-74
2021/01/26 06:14:45;;;;;;;6.10;3.73;;;-3.40;99.90;;;;;;5074232;28;20495;-73
2021/01/26 06:17:18;;;;;;;6.60;3.53;;;-3.40;99.90;;;;;;5074093;28;20414;-73
2021/01/26 06:19:45;;;;;;;4.03;2.57;;;-3.40;99.90;;;;;;5073952;28;20873;-70
2021/01/26 06:22:24;;;;;;;5.43;3.37;;;-3.40;99.90;;;;;;5073692;28;20429;-71
2021/01/26 06:24:55;;;;;;;4.60;3.30;;;-3.40;99.90;;;;;;5073843;28;20456;-71
2021/01/26 06:27:53;;;;;;;8.33;4.20;;;-3.40;99.90;;;;;;5073860;28;20433;-71
2021/01/26 06:30:37;;;;;;;2.83;2.50;;;-3.40;99.90;;;;;;5073918;28;20426;-70
2021/01/26 06:33:36;;;;;;;7.43;4.40;;;-3.30;99.90;;;;;;5073245;28;20857;-71
2021/01/26 06:36:25;;;;;;;4.20;2.57;;;-3.30;99.90;;;;;;5073705;28;20429;-71
2021/01/26 06:39:16;;;;;;;6.90;4.30;;;-3.20;99.90;;;;;;5073555;28;20978;-71
2021/01/26 06:42:12;;;;;;;7.10;3.77;;;-3.30;99.90;;;;;;5073172;28;20532;-71
2021/01/26 06:45:14;;;;;;;4.20;3.27;;;-3.30;99.90;;;;;;5072066;28;20811;-71
2021/01/26 06:48:07;;;;;;;5.30;4.80;;;-3.30;99.90;;;;;;5063451;28;20437;-71
2021/01/26 06:50:59;;;;;;;5.47;3.73;;;-3.30;99.90;;;;;;5083483;28;20452;-71
2021/01/26 06:53:34;;;;;;;8.00;5.43;;;-3.30;99.90;;;;;;5073809;28;20426;-70
2021/01/26 06:56:08;;;;;;;6.77;4.40;;;-3.30;99.90;;;;;;5073380;28;20421;-70
2021/01/26 06:59:06;;;;;;;4.30;3.53;;;-3.30;99.90;;;;;;5072540;28;20466;-70
2021/01/26 07:02:04;;;;;;;6.13;4.60;;;-3.10;99.90;;;;;;5073160;28;20474;-70
2021/01/26 07:05:03;;;;;;;7.07;4.10;;;-3.00;99.90;;;;;;5065069;28;20458;-71
2021/01/26 07:08:19;;;;;;;8.57;4.83;;;-2.90;99.90;;;;;;5073077;28;20456;-71
2021/01/26 07:11:01;;;;;;;7.07;4.23;;;-2.90;99.90;;;;;;4991026;28;20473;-71
2021/01/26 07:13:35;;;;;;;4.00;2.97;;;-2.90;99.90;;;;;;5061970;28;20434;-70
2021/01/26 07:16:37;;;;;;;9.80;5.40;;;-2.90;99.90;;;;;;5073042;28;20840;-71
2021/01/26 07:19:29;;;;;;;12.00;5.90;;;-2.90;99.90;;;;;;5072434;28;20471;-70
2021/01/26 07:22:29;;;;;;;10.27;6.90;;;-2.90;99.90;;;;;;5072536;28;20422;-70
2021/01/26 07:25:06;;;;;;;6.03;4.63;;;-3.00;99.90;;;;;;5071859;28;20457;-68
2021/01/26 07:28:02;;;;;;;5.77;4.50;;;-3.00;99.90;;;;;;5072294;28;20428;-71
2021/01/26 07:30:34;;;;;;;4.60;4.20;;;-3.00;99.90;;;;;;5052404;28;20443;-71
2021/01/26 07:33:06;;;;;;;9.77;5.03;;;-3.00;99.90;;;;;;5052525;28;20420;-70
2021/01/26 07:35:39;;;;;;;9.53;6.70;;;-3.00;99.90;;;;;;5052360;28;20478;-70
2021/01/26 07:38:12;;;;;;;6.23;4.43;;;-2.90;99.90;;;;;;5052377;28;20446;-70
2021/01/26 07:40:47;;;;;;;6.90;5.43;;;-2.90;99.90;;;;;;5051666;28;20493;-67
2021/01/26 07:43:22;;;;;;;10.20;5.50;;;-3.00;99.90;;;;;;5052470;28;20488;-70
2021/01/26 07:45:55;;;;;;;13.93;6.10;;;-2.90;99.90;;;;;;5052524;28;20804;-69
2021/01/26 07:48:31;;;;;;;7.93;5.07;;;-2.90;99.90;;;;;;5052164;28;20434;-68
2021/01/26 07:51:00;;;;;;;14.63;4.87;;;-2.90;99.90;;;;;;5059603;28;20479;-67
2021/01/26 07:53:35;;;;;;;9.53;6.00;;;-2.90;99.90;;;;;;5070813;28;20418;-69
2021/01/26 07:56:08;;;;;;;6.60;5.70;;;-2.90;99.90;;;;;;5072036;28;20426;-69
2021/01/26 07:58:37;;;;;;;6.37;4.17;;;-2.90;99.90;;;;;;5071546;28;20465;-67
2021/01/26 08:01:04;;;;;;;10.80;5.37;;;-2.90;99.90;;;;;;5074905;28;20945;-67
2021/01/26 08:03:31;;;;;;;8.03;5.67;;;-2.90;99.90;;;;;;5078575;28;20532;-69
2021/01/26 08:05:59;;;;;;;14.30;5.43;;;-2.90;99.90;;;;;;5076755;28;20443;-67
2021/01/26 08:08:38;;;;;;;18.23;6.70;;;-2.90;99.90;;;;;;5079233;28;20532;-69
2021/01/26 08:11:12;;;;;;;6.90;3.97;;;-2.90;99.90;;;;;;5079608;28;20512;-67
2021/01/26 08:13:46;;;;;;;11.97;5.40;;;-2.90;99.90;;;;;;5081411;28;20440;-67
2021/01/26 08:16:18;;;;;;;12.37;6.30;;;-2.80;99.90;;;;;;5082396;28;20421;-69
2021/01/26 08:18:45;;;;;;;10.13;5.57;;;-2.80;99.90;;;;;;5078557;28;20497;-68
2021/01/26 08:21:34;;;;;;;4.00;3.60;;;-2.70;99.90;;;;;;5071144;28;20441;-69
2021/01/26 08:24:13;;;;;;;7.30;4.70;;;-2.80;99.90;;;;;;5070735;28;20458;-70
2021/01/26 08:26:41;;;;;;;8.40;4.63;;;-2.80;99.90;;;;;;5071611;28;20786;-70
2021/01/26 08:29:09;;;;;;;6.63;4.40;;;-2.80;99.90;;;;;;5070736;28;20438;-70
2021/01/26 08:31:38;;;;;;;6.80;4.23;;;-2.80;99.90;;;;;;5070677;28;20442;-69
2021/01/26 08:34:44;;;;;;;10.03;5.60;;;-2.80;99.90;;;;;;5071023;28;20796;-69
2021/01/26 08:37:24;;;;;;;8.20;5.90;;;-2.70;99.90;;;;;;5064886;28;20442;-67
2021/01/26 08:39:53;;;;;;;10.47;4.77;;;-2.70;99.90;;;;;;5070505;28;20551;-69
2021/01/26 08:43:02;;;;;;;5.17;4.33;;;-2.60;99.90;;;;;;5070949;28;20438;-69
2021/01/26 08:45:53;;;;;;;12.37;6.47;;;-2.60;99.90;;;;;;5070471;28;20462;-68
2021/01/26 08:48:30;;;;;;;5.50;4.40;;;-2.60;99.90;;;;;;5070158;28;20460;-69
2021/01/26 08:51:12;;;;;;;10.97;6.80;;;-2.60;99.90;;;;;;5070804;28;21013;-69
2021/01/26 08:53:48;;;;;;;12.43;6.47;;;-2.50;99.90;;;;;;5070450;28;20452;-66
2021/01/26 08:56:41;;;;;;;6.80;4.10;;;-2.50;99.90;;;;;;5070643;28;20481;-68
2021/01/26 08:59:13;;;;;;;6.73;3.97;;;-2.40;99.90;;;;;;5070785;28;20527;-69
2021/01/26 09:01:46;;;;;;;7.57;5.40;;;-2.40;99.90;;;;;;5070794;28;20479;-69
2021/01/26 09:04:40;;;;;;;8.37;5.87;;;-2.30;99.90;;;;;;5069948;28;20974;-69
2021/01/26 09:07:07;;;;;;;3.20;2.90;;;-2.10;99.90;;;;;;5070827;28;20452;-68
2021/01/26 09:09:51;;;;;;;5.73;4.43;;;-2.20;99.90;;;;;;5070731;28;20421;-70
2021/01/26 09:12:24;;;;;;;8.30;6.30;;;-2.20;99.90;;;;;;5068950;28;20453;-67
2021/01/26 09:14:55;;;;;;;6.07;4.23;;;-2.10;99.90;;;;;;5070913;28;21023;-68
2021/01/26 09:17:31;;;;;;;11.10;4.83;;;-2.10;99.90;;;;;;5070676;28;20417;-69
2021/01/26 09:20:07;;;;;;;7.43;5.30;;;-2.20;99.90;;;;;;5070494;28;20469;-69
2021/01/26 09:25:32;;;;;;;3.50;2.90;;;-2.10;99.90;;;;;;5069750;28;20473;-68
2021/01/26 09:28:00;;;;;;;12.17;5.33;;;-2.10;99.90;;;;;;5070521;28;20430;-70
2021/01/26 09:30:28;;;;;;;8.27;5.37;;;-2.00;99.90;;;;;;5070972;28;20426;-67
2021/01/26 09:33:14;;;;;;;11.83;4.33;;;-1.90;99.90;;;;;;5070421;28;20807;-70
2021/01/26 09:35:43;;;;;;;7.63;3.50;;;-1.90;99.90;;;;;;5070072;28;20462;-67
2021/01/26 09:38:13;;;;;;;9.73;4.87;;;-1.90;99.90;;;;;;5070499;28;20441;-67
2021/01/26 09:40:42;;;;;;;7.57;4.70;;;-1.90;99.90;;;;;;5070674;28;20437;-69
2021/01/26 09:43:12;;;;;;;9.97;3.53;;;-1.80;99.90;;;;;;5073578;28;20433;-67
2021/01/26 09:45:39;;;;;;;3.93;3.57;;;-1.80;99.90;;;;;;5073318;28;20448;-67
2021/01/26 09:48:08;;;;;;;5.20;4.33;;;-1.80;99.90;;;;;;5072336;28;20438;-69
2021/01/26 09:50:35;;;;;;;4.37;2.90;;;-1.80;99.90;;;;;;5073090;28;20430;-68
2021/01/26 09:53:05;;;;;;;8.90;3.93;;;-1.70;99.90;;;;;;5072858;28;20430;-68
2021/01/26 09:55:32;;;;;;;5.07;3.27;;;-1.70;99.90;;;;;;5073032;28;20996;-67
2021/01/26 09:57:59;;;;;;;5.83;2.93;;;-1.80;99.90;;;;;;5072235;28;20929;-70
2021/01/26 10:00:29;;;;;;;9.57;4.20;;;-1.80;99.90;;;;;;5073136;28;20464;-73
2021/01/26 10:02:59;;;;;;;7.00;2.57;;;-1.70;99.90;;;;;;5072117;28;20960;-70
2021/01/26 10:05:29;;;;;;;20.23;5.47;;;-1.70;99.90;;;;;;5073013;28;20446;-67
2021/01/26 10:08:11;;;;;;;2.40;2.17;;;-1.80;99.90;;;;;;5072960;28;21035;-68
2021/01/26 10:10:44;;;;;;;2.90;2.50;;;-1.80;99.90;;;;;;5072828;28;20448;-68
2021/01/26 10:13:26;;;;;;;7.83;3.43;;;-1.80;99.90;;;;;;5072910;28;20426;-68
2021/01/26 10:15:53;;;;;;;5.80;3.40;;;-1.80;99.90;;;;;;5072570;28;20488;-68
2021/01/26 10:18:22;;;;;;;4.77;3.57;;;-1.70;99.90;;;;;;5071894;28;20831;-69
2021/01/26 10:20:59;;;;;;;4.10;3.00;;;-1.70;99.90;;;;;;5072636;28;20429;-68
2021/01/26 10:23:36;;;;;;;4.80;4.37;;;-1.60;99.90;;;;;;5072088;28;20450;-67
2021/01/26 10:26:15;;;;;;;3.80;2.37;;;-1.70;99.90;;;;;;5072277;28;20938;-68
2021/01/26 10:29:20;;;;;;;3.10;2.80;;;-1.60;99.90;;;;;;5072543;28;20430;-67
2021/01/26 10:31:48;;;;;;;3.20;2.67;;;-1.60;99.90;;;;;;4989973;28;20445;-67
2021/01/26 10:34:35;;;;;;;3.37;2.90;;;-1.60;99.90;;;;;;5058989;28;20468;-68
2021/01/26 10:37:31;;;;;;;11.70;4.00;;;-1.70;99.90;;;;;;5072587;28;20430;-68
2021/01/26 10:40:34;;;;;;;5.80;3.70;;;-1.70;99.90;;;;;;5069884;28;20564;-67
2021/01/26 10:43:11;;;;;;;5.80;3.40;;;-1.70;99.90;;;;;;5035098;28;706012;-68
2021/01/26 10:45:43;;;;;;;3.30;2.90;;;-1.70;99.90;;;;;;5073467;28;20261;-68
2021/01/26 10:48:28;;;;;;;5.70;3.90;;;-1.70;99.90;;;;;;5073349;28;20415;-67
2021/01/26 10:50:57;;;;;;;4.30;3.10;;;-1.70;99.90;;;;;;5073428;28;20448;-68
2021/01/26 10:53:35;;;;;;;5.50;4.30;;;-1.60;99.90;;;;;;5072865;28;20472;-68
2021/01/26 10:56:02;;;;;;;4.40;3.13;;;-1.50;99.90;;;;;;5073325;28;20453;-68
2021/01/26 10:58:29;;;;;;;4.17;3.13;;;-1.50;99.90;;;;;;5072881;28;20833;-68
2021/01/26 11:00:55;;;;;;;3.50;3.20;;;-1.50;99.90;;;;;;5073106;28;20441;-68
2021/01/26 11:03:22;;;;;;;3.03;2.40;;;-1.40;99.90;;;;;;5073129;28;20437;-69
2021/01/26 11:05:49;;;;;;;4.90;2.97;;;-1.30;99.90;;;;;;5073049;28;20442;-68
2021/01/26 11:08:16;;;;;;;3.63;2.50;;;-1.30;99.90;;;;;;5073049;28;20441;-66
2021/01/26 11:10:43;;;;;;;4.40;2.73;;;-1.30;99.90;;;;;;5072573;28;20426;-67
2021/01/26 11:13:10;;;;;;;6.20;3.67;;;-1.40;99.90;;;;;;5073019;28;20421;-68
2021/01/26 11:15:37;;;;;;;1.83;1.60;;;-1.30;99.90;;;;;;5072772;28;20462;-68
2021/01/26 11:18:04;;;;;;;2.90;2.60;;;-1.40;99.90;;;;;;5073155;28;20814;-68
2021/01/26 11:20:31;;;;;;;3.50;2.47;;;-1.40;99.90;;;;;;5072726;28;20922;-69
2021/01/26 11:22:58;;;;;;;2.67;2.40;;;-1.40;99.90;;;;;;5073036;28;20438;-67
2021/01/26 11:25:25;;;;;;;4.10;2.77;;;-1.40;99.90;;;;;;5072924;28;20459;-68
2021/01/26 11:27:53;;;;;;;3.37;2.83;;;-1.30;99.90;;;;;;5072620;28;20486;-69
2021/01/26 11:30:21;;;;;;;5.07;2.53;;;-1.20;99.90;;;;;;5072601;28;20778;-68
2021/01/26 11:32:48;;;;;;;6.17;3.40;;;-1.20;99.90;;;;;;5072412;28;20438;-69
2021/01/26 11:35:20;;;;;;;2.93;2.63;;;-1.20;99.90;;;;;;5072466;28;20481;-69
2021/01/26 11:37:47;;;;;;;3.43;2.87;;;-1.20;99.90;;;;;;5072600;28;20419;-68
2021/01/26 11:40:15;;;;;;;4.67;4.17;;;-1.20;99.90;;;;;;5072435;28;20482;-68
2021/01/26 11:42:42;;;;;;;2.80;2.50;;;-1.20;99.90;;;;;;5071863;28;20465;-68
2021/01/26 11:45:13;;;;;;;3.77;2.83;;;-1.10;99.90;;;;;;5071897;28;20446;-69
2021/01/26 11:47:40;;;;;;;3.73;2.33;;;-1.10;99.90;;;;;;5071801;28;20426;-68
2021/01/26 11:50:09;;;;;;;4.97;2.87;;;-1.10;99.90;;;;;;5072084;28;20427;-67
2021/01/26 11:52:36;;;;;;;3.13;2.83;;;-1.00;99.90;;;;;;5072123;28;20433;-69
2021/01/26 11:55:04;;;;;;;3.80;2.87;;;-1.00;99.90;;;;;;5072111;28;20461;-68
2021/01/26 11:57:31;;;;;;;3.30;2.37;;;-0.90;99.90;;;;;;5071642;28;20776;-68
2021/01/26 11:59:58;;;;;;;4.27;3.43;;;-0.90;99.90;;;;;;5071800;28;20519;-68
2021/01/26 12:02:26;;;;;;;5.10;3.60;;;-0.90;99.90;;;;;;5072133;28;20850;-67
2021/01/26 12:04:53;;;;;;;4.93;2.10;;;-0.80;99.90;;;;;;5071143;28;20454;-68
2021/01/26 12:07:19;;;;;;;3.50;2.47;;;-0.80;99.90;;;;;;5072132;28;20445;-70
2021/01/26 12:09:46;;;;;;;3.97;2.80;;;-0.80;99.90;;;;;;5071648;28;20439;-68
2021/01/26 12:12:14;;;;;;;3.13;2.90;;;-0.70;99.90;;;;;;5071317;28;20430;-67
2021/01/26 12:14:40;;;;;;;3.50;2.40;;;-0.70;99.90;;;;;;5071656;28;20450;-69
2021/01/26 12:17:07;;;;;;;4.50;3.50;;;-0.70;99.90;;;;;;5071757;28;20480;-69
2021/01/26 12:19:34;;;;;;;3.87;2.87;;;-0.70;99.90;;;;;;5071338;28;20990;-67
2021/01/26 12:22:01;;;;;;;2.70;2.50;;;-0.70;99.90;;;;;;5071448;28;20426;-67
2021/01/26 12:24:28;;;;;;;3.57;2.67;;;-0.80;99.90;;;;;;5071567;28;20458;-69
2021/01/26 12:26:55;;;;;;;9.47;2.23;;;-0.80;99.90;;;;;;5071378;28;20927;-69
2021/01/26 12:29:22;;;;;;;3.63;2.57;;;-0.80;99.90;;;;;;5071299;28;20483;-69
2021/01/26 12:31:48;;;;;;;4.73;2.90;;;-0.70;99.90;;;;;;5071180;28;20425;-69
2021/01/26 12:34:16;;;;;;;3.60;3.23;;;-0.60;99.90;;;;;;5071362;28;20496;-69
2021/01/26 12:36:43;;;;;;;3.53;3.03;;;-0.60;99.90;;;;;;5071379;28;20444;-70
2021/01/26 12:39:10;;;;;;;9.60;2.10;;;-0.50;99.90;;;;;;5071188;28;20989;-67
2021/01/26 12:41:36;;;;;;;4.60;2.40;;;-0.40;99.90;;;;;;5070657;28;20445;-69
2021/01/26 12:44:06;;;;;;;4.87;2.63;;;-0.30;99.90;;;;;;5071192;28;20454;-69
2021/01/26 12:46:34;;;;;;;2.77;2.47;;;-0.30;99.90;;;;;;5071066;28;20437;-69
2021/01/26 12:49:00;;;;;;;3.30;3.00;;;-0.30;99.90;;;;;;5070985;28;20440;-69
2021/01/26 12:51:27;;;;;;;6.27;2.50;;;-0.30;99.90;;;;;;5070951;28;20430;-68
2021/01/26 12:53:56;;;;;;;5.83;2.90;;;-0.40;99.90;;;;;;5070590;28;20450;-69
2021/01/26 12:56:23;;;;;;;9.10;2.90;;;-0.50;99.90;;;;;;5070708;28;20474;-68
2021/01/26 12:58:49;;;;;;;4.50;3.50;;;-0.60;99.90;;;;;;5071005;28;20561;-69
2021/01/26 13:01:17;;;;;;;6.60;3.53;;;-0.40;99.90;;;;;;5070689;28;20901;-70
2021/01/26 13:03:43;;;;;;;10.33;1.90;;;-0.30;99.90;;;;;;5071108;28;20806;-70
2021/01/26 13:06:10;;;;;;;8.27;3.40;;;-0.30;99.90;;;;;;5071057;28;20442;-68
2021/01/26 13:08:37;;;;;;;3.10;2.40;;;-0.20;99.90;;;;;;5070809;28;20487;-70
2021/01/26 13:11:04;;;;;;;2.43;1.93;;;-0.30;99.90;;;;;;5070475;28;20438;-67
2021/01/26 13:13:31;;;;;;;6.03;2.80;;;-0.40;99.90;;;;;;5070803;28;20418;-68
2021/01/26 13:15:58;;;;;;;2.77;2.57;;;-0.40;99.90;;;;;;5070849;28;20795;-67
2021/01/26 13:18:24;;;;;;;5.40;2.97;;;-0.30;99.90;;;;;;5070497;28;20441;-68
2021/01/26 13:20:51;;;;;;;3.53;2.37;;;-0.40;99.90;;;;;;5070701;28;20508;-69
2021/01/26 13:23:19;;;;;;;3.53;2.90;;;-0.30;99.90;;;;;;5070602;28;20422;-69
2021/01/26 13:25:46;;;;;;;2.97;2.03;;;-0.20;99.90;;;;;;5070988;28;20476;-70